sensor_id;sensor_type;location;lat;lon;timestamp;pressure;altitude;pressure_sealevel;temperature;humidity
7474;BME280;3778;42.572;23.426;2023-03-26T00:01:47;94730.69;;;-146.70;61.41
7474;BME280;3778;42.572;23.426;2023-03-26T00:04:14;94716.09;;;-146.70;61.61
7474;BME280;3778;42.572;23.426;2023-03-26T00:06:44;94755.69;;;-146.70;62.53
7474;BME280;3778;42.572;23.426;2023-03-26T00:09:14;94749.44;;;-146.70;62.44
7474;BME280;3778;42.572;23.426;2023-03-26T00:11:42;94751.53;;;-146.70;63.06
7474;BME280;3778;42.572;23.426;2023-03-26T00:14:11;94728.59;;;-146.70;63.20
7474;BME280;3778;42.572;23.426;2023-03-26T00:16:39;94753.59;;;-146.70;63.83
7474;BME280;3778;42.572;23.426;2023-03-26T00:19:07;94755.69;;;-146.70;64.13
7474;BME280;3778;42.572;23.426;2023-03-26T00:21:34;94774.44;;;-146.70;64.52
7474;BME280;3778;42.572;23.426;2023-03-26T00:24:02;94776.53;;;-146.70;64.76
7474;BME280;3778;42.572;23.426;2023-03-26T00:26:31;94807.78;;;-146.70;65.43
7474;BME280;3778;42.572;23.426;2023-03-26T00:28:58;94786.94;;;-146.70;65.33
7474;BME280;3778;42.572;23.426;2023-03-26T00:31:26;94799.44;;;-146.70;65.33
7474;BME280;3778;42.572;23.426;2023-03-26T00:33:54;94793.19;;;-146.70;65.81
7474;BME280;3778;42.572;23.426;2023-03-26T00:36:22;94755.69;;;-146.70;65.79
7474;BME280;3778;42.572;23.426;2023-03-26T00:38:50;94751.53;;;-146.70;66.02
7474;BME280;3778;42.572;23.426;2023-03-26T00:41:19;94791.13;;;-146.70;66.18
7474;BME280;3778;42.572;23.426;2023-03-26T00:43:51;94820.28;;;-146.70;66.49
7474;BME280;3778;42.572;23.426;2023-03-26T00:46:20;94809.88;;;-146.70;66.74
7474;BME280;3778;42.572;23.426;2023-03-26T00:48:47;94822.38;;;-146.70;67.23
7474;BME280;3778;42.572;23.426;2023-03-26T00:51:17;94809.88;;;-146.70;66.92
7474;BME280;3778;42.572;23.426;2023-03-26T00:53:46;94807.78;;;-146.70;67.54
7474;BME280;3778;42.572;23.426;2023-03-26T00:56:13;94814.03;;;-146.70;67.93
7474;BME280;3778;42.572;23.426;2023-03-26T00:58:40;94841.13;;;-146.70;68.05
7474;BME280;3778;42.572;23.426;2023-03-26T01:01:09;94861.97;;;-146.70;68.36
7474;BME280;3778;42.572;23.426;2023-03-26T01:03:38;94864.06;;;-146.70;69.32
7474;BME280;3778;42.572;23.426;2023-03-26T01:06:07;94861.97;;;-146.70;69.53
7474;BME280;3778;42.572;23.426;2023-03-26T01:08:37;94859.88;;;-146.70;69.41
7474;BME280;3778;42.572;23.426;2023-03-26T01:11:07;94830.72;;;-146.70;69.53
7474;BME280;3778;42.572;23.426;2023-03-26T01:13:40;94836.97;;;-146.70;69.19
7474;BME280;3778;42.572;23.426;2023-03-26T01:16:14;94874.47;;;-146.70;69.31
7474;BME280;3778;42.572;23.426;2023-03-26T01:18:45;94870.31;;;-146.70;69.41
7474;BME280;3778;42.572;23.426;2023-03-26T01:21:13;94843.22;;;-146.70;68.95
7474;BME280;3778;42.572;23.426;2023-03-26T01:23:57;94845.31;;;-146.70;68.65
7474;BME280;3778;42.572;23.426;2023-03-26T01:29:18;94861.97;;;-146.70;68.11
7474;BME280;3778;42.572;23.426;2023-03-26T01:31:51;94870.31;;;-146.70;67.54
7474;BME280;3778;42.572;23.426;2023-03-26T01:34:24;94870.31;;;-146.70;67.79
7474;BME280;3778;42.572;23.426;2023-03-26T01:37:07;94845.31;;;-146.70;67.15
7474;BME280;3778;42.572;23.426;2023-03-26T01:39:43;94853.63;;;-146.70;67.16
7474;BME280;3778;42.572;23.426;2023-03-26T01:42:21;94832.78;;;-146.70;67.50
7474;BME280;3778;42.572;23.426;2023-03-26T01:44:56;94828.63;;;-146.70;67.04
7474;BME280;3778;42.572;23.426;2023-03-26T01:47:25;94870.31;;;-146.70;66.55
7474;BME280;3778;42.572;23.426;2023-03-26T01:49:52;94832.78;;;-146.70;66.72
7474;BME280;3778;42.572;23.426;2023-03-26T01:52:21;94722.34;;;-146.70;66.58
7474;BME280;3778;42.572;23.426;2023-03-26T01:54:53;94828.63;;;-146.70;66.74
7474;BME280;3778;42.572;23.426;2023-03-26T01:57:33;94822.38;;;-146.70;66.86
7474;BME280;3778;42.572;23.426;2023-03-26T02:00:17;94841.13;;;-146.70;67.21
7474;BME280;3778;42.572;23.426;2023-03-26T02:03:06;94849.47;;;-146.70;67.49
7474;BME280;3778;42.572;23.426;2023-03-26T02:05:46;94851.56;;;-146.70;67.60
7474;BME280;3778;42.572;23.426;2023-03-26T02:08:18;94826.53;;;-146.70;67.86
7474;BME280;3778;42.572;23.426;2023-03-26T02:10:51;94832.78;;;-146.70;67.90
7474;BME280;3778;42.572;23.426;2023-03-26T02:13:19;94841.13;;;-146.70;68.27
7474;BME280;3778;42.572;23.426;2023-03-26T02:15:56;94830.72;;;-146.70;68.34
7474;BME280;3778;42.572;23.426;2023-03-26T02:18:24;94830.72;;;-146.70;68.43
7474;BME280;3778;42.572;23.426;2023-03-26T02:21:01;94766.09;;;-146.70;68.78
7474;BME280;3778;42.572;23.426;2023-03-26T02:23:29;94878.66;;;-146.70;68.86
7474;BME280;3778;42.572;23.426;2023-03-26T02:26:01;94886.97;;;-146.70;69.11
7474;BME280;3778;42.572;23.426;2023-03-26T02:28:30;94841.13;;;-146.70;69.26
7474;BME280;3778;42.572;23.426;2023-03-26T02:30:57;94914.06;;;-146.70;69.54
7474;BME280;3778;42.572;23.426;2023-03-26T02:33:26;94874.47;;;-146.70;69.39
7474;BME280;3778;42.572;23.426;2023-03-26T02:35:53;94886.97;;;-146.70;69.59
7474;BME280;3778;42.572;23.426;2023-03-26T02:38:24;94868.22;;;-146.70;69.36
7474;BME280;3778;42.572;23.426;2023-03-26T02:40:52;94899.47;;;-146.70;69.29
7474;BME280;3778;42.572;23.426;2023-03-26T02:43:20;94895.31;;;-146.70;69.59
7474;BME280;3778;42.572;23.426;2023-03-26T02:45:47;94907.81;;;-146.70;69.60
7474;BME280;3778;42.572;23.426;2023-03-26T02:48:13;94907.81;;;-146.70;69.85
7474;BME280;3778;42.572;23.426;2023-03-26T02:50:40;94901.56;;;-146.70;69.28
7474;BME280;3778;42.572;23.426;2023-03-26T02:53:08;94905.75;;;-146.70;70.03
7474;BME280;3778;42.572;23.426;2023-03-26T02:55:36;94893.22;;;-146.70;70.96
7474;BME280;3778;42.572;23.426;2023-03-26T02:58:02;94901.56;;;-146.70;70.73
7474;BME280;3778;42.572;23.426;2023-03-26T03:00:31;94916.16;;;-146.70;70.46
7474;BME280;3778;42.572;23.426;2023-03-26T03:02:58;94922.41;;;-146.70;70.15
7474;BME280;3778;42.572;23.426;2023-03-26T03:05:27;94903.66;;;-146.70;70.10
7474;BME280;3778;42.572;23.426;2023-03-26T03:07:55;94901.56;;;-146.70;70.02
7474;BME280;3778;42.572;23.426;2023-03-26T03:10:23;94866.13;;;-146.70;69.88
7474;BME280;3778;42.572;23.426;2023-03-26T03:12:50;94884.91;;;-146.70;69.70
7474;BME280;3778;42.572;23.426;2023-03-26T03:15:17;94891.16;;;-146.70;69.83
7474;BME280;3778;42.572;23.426;2023-03-26T03:17:45;94907.81;;;-146.70;70.12
7474;BME280;3778;42.572;23.426;2023-03-26T03:20:12;94861.97;;;-146.70;68.83
7474;BME280;3778;42.572;23.426;2023-03-26T03:22:40;94884.91;;;-146.70;67.95
7474;BME280;3778;42.572;23.426;2023-03-26T03:25:08;94876.56;;;-146.70;68.02
7474;BME280;3778;42.572;23.426;2023-03-26T03:27:39;94872.41;;;-146.70;68.15
7474;BME280;3778;42.572;23.426;2023-03-26T03:30:07;94857.81;;;-146.70;68.19
7474;BME280;3778;42.572;23.426;2023-03-26T03:32:33;94922.41;;;-146.70;68.85
7474;BME280;3778;42.572;23.426;2023-03-26T03:35:02;94870.31;;;-146.70;68.67
7474;BME280;3778;42.572;23.426;2023-03-26T03:37:29;94874.47;;;-146.70;69.36
7474;BME280;3778;42.572;23.426;2023-03-26T03:39:55;94909.91;;;-146.70;69.64
7474;BME280;3778;42.572;23.426;2023-03-26T03:42:22;94899.47;;;-146.70;69.82
7474;BME280;3778;42.572;23.426;2023-03-26T03:44:49;94937.00;;;-146.70;70.12
7474;BME280;3778;42.572;23.426;2023-03-26T03:47:15;94914.06;;;-146.70;70.29
7474;BME280;3778;42.572;23.426;2023-03-26T03:49:42;94953.66;;;-146.70;70.29
7474;BME280;3778;42.572;23.426;2023-03-26T03:52:10;94928.66;;;-146.70;70.39
7474;BME280;3778;42.572;23.426;2023-03-26T03:54:37;94959.94;;;-146.70;70.87
7474;BME280;3778;42.572;23.426;2023-03-26T03:57:03;94934.91;;;-146.70;70.98
7474;BME280;3778;42.572;23.426;2023-03-26T03:59:30;94912.00;;;-146.70;70.89
7474;BME280;3778;42.572;23.426;2023-03-26T04:01:57;94941.16;;;-146.70;70.95
7474;BME280;3778;42.572;23.426;2023-03-26T04:04:24;94922.41;;;-146.70;71.28
7474;BME280;3778;42.572;23.426;2023-03-26T04:06:50;94982.84;;;-146.70;71.72
7474;BME280;3778;42.572;23.426;2023-03-26T04:09:19;94962.00;;;-146.70;71.80
7474;BME280;3778;42.572;23.426;2023-03-26T04:11:45;94937.00;;;-146.70;71.58
7474;BME280;3778;42.572;23.426;2023-03-26T04:14:15;94982.84;;;-146.70;71.77
7474;BME280;3778;42.572;23.426;2023-03-26T04:16:41;94968.25;;;-146.70;72.11
7474;BME280;3778;42.572;23.426;2023-03-26T04:19:08;94957.84;;;-146.70;71.67
7474;BME280;3778;42.572;23.426;2023-03-26T04:21:35;94951.59;;;-146.70;71.29
7474;BME280;3778;42.572;23.426;2023-03-26T04:24:03;94962.00;;;-146.70;71.00
7474;BME280;3778;42.572;23.426;2023-03-26T04:26:31;94949.50;;;-146.70;71.03
7474;BME280;3778;42.572;23.426;2023-03-26T04:28:59;94920.31;;;-146.70;71.22
7474;BME280;3778;42.572;23.426;2023-03-26T04:31:27;94959.94;;;-146.70;71.03
7474;BME280;3778;42.572;23.426;2023-03-26T04:34:04;94926.56;;;-146.70;71.33
7474;BME280;3778;42.572;23.426;2023-03-26T04:36:32;94949.50;;;-146.70;71.75
7474;BME280;3778;42.572;23.426;2023-03-26T04:39:02;94930.75;;;-146.70;71.73
7474;BME280;3778;42.572;23.426;2023-03-26T04:41:30;94970.34;;;-146.70;71.64
7474;BME280;3778;42.572;23.426;2023-03-26T04:43:57;94907.81;;;-146.70;71.97
7474;BME280;3778;42.572;23.426;2023-03-26T04:46:26;94957.84;;;-146.70;71.93
7474;BME280;3778;42.572;23.426;2023-03-26T04:48:58;94924.50;;;-146.70;72.02
7474;BME280;3778;42.572;23.426;2023-03-26T04:51:26;94955.75;;;-146.70;71.88
7474;BME280;3778;42.572;23.426;2023-03-26T04:53:56;94924.50;;;-146.70;71.66
7474;BME280;3778;42.572;23.426;2023-03-26T04:56:33;94949.50;;;-146.70;71.66
7474;BME280;3778;42.572;23.426;2023-03-26T04:59:02;94889.06;;;-146.70;71.90
7474;BME280;3778;42.572;23.426;2023-03-26T05:01:28;94953.66;;;-146.70;71.72
7474;BME280;3778;42.572;23.426;2023-03-26T05:03:55;94972.44;;;-146.70;71.46
7474;BME280;3778;42.572;23.426;2023-03-26T05:06:23;94943.25;;;-146.70;71.43
7474;BME280;3778;42.572;23.426;2023-03-26T05:08:52;94926.56;;;-146.70;71.46
7474;BME280;3778;42.572;23.426;2023-03-26T05:11:19;94920.31;;;-146.70;70.85
7474;BME280;3778;42.572;23.426;2023-03-26T05:13:47;94941.16;;;-146.70;71.06
7474;BME280;3778;42.572;23.426;2023-03-26T05:16:13;94943.25;;;-146.70;70.47
7474;BME280;3778;42.572;23.426;2023-03-26T05:18:40;94934.91;;;-146.70;69.47
7474;BME280;3778;42.572;23.426;2023-03-26T05:21:07;94918.25;;;-146.70;70.08
7474;BME280;3778;42.572;23.426;2023-03-26T05:23:33;94930.75;;;-146.70;68.05
7474;BME280;3778;42.572;23.426;2023-03-26T05:26:00;94947.41;;;-146.70;67.99
7474;BME280;3778;42.572;23.426;2023-03-26T05:28:27;94895.31;;;-146.70;67.68
7474;BME280;3778;42.572;23.426;2023-03-26T05:30:55;94907.81;;;-146.70;66.85
7474;BME280;3778;42.572;23.426;2023-03-26T05:33:22;94891.16;;;-146.70;66.78
7474;BME280;3778;42.572;23.426;2023-03-26T05:35:58;94870.31;;;-146.70;65.71
7474;BME280;3778;42.572;23.426;2023-03-26T05:38:25;94914.06;;;-146.70;63.75
7474;BME280;3778;42.572;23.426;2023-03-26T05:40:56;94876.56;;;-146.70;63.43
7474;BME280;3778;42.572;23.426;2023-03-26T05:43:24;94861.97;;;-146.70;63.26
7474;BME280;3778;42.572;23.426;2023-03-26T05:45:50;94868.22;;;-146.70;63.34
7474;BME280;3778;42.572;23.426;2023-03-26T05:48:19;94855.72;;;-146.70;63.64
7474;BME280;3778;42.572;23.426;2023-03-26T05:50:47;94832.78;;;-146.70;63.39
7474;BME280;3778;42.572;23.426;2023-03-26T05:53:13;94866.13;;;-146.70;63.53
7474;BME280;3778;42.572;23.426;2023-03-26T05:55:42;94839.03;;;-146.70;63.11
7474;BME280;3778;42.572;23.426;2023-03-26T05:58:10;94843.22;;;-146.70;63.10
7474;BME280;3778;42.572;23.426;2023-03-26T06:00:36;94836.97;;;-146.70;63.06
7474;BME280;3778;42.572;23.426;2023-03-26T06:03:03;94845.31;;;-146.70;62.28
7474;BME280;3778;42.572;23.426;2023-03-26T06:05:33;94814.03;;;-146.70;62.38
7474;BME280;3778;42.572;23.426;2023-03-26T06:08:01;94828.63;;;-146.70;62.03
7474;BME280;3778;42.572;23.426;2023-03-26T06:10:28;94809.88;;;-146.70;62.38
7474;BME280;3778;42.572;23.426;2023-03-26T06:12:55;94795.28;;;-146.70;62.09
7474;BME280;3778;42.572;23.426;2023-03-26T06:15:21;94820.28;;;-146.70;62.70
7474;BME280;3778;42.572;23.426;2023-03-26T06:17:48;94766.09;;;-146.70;61.42
7474;BME280;3778;42.572;23.426;2023-03-26T06:20:15;94789.03;;;-146.70;61.40
7474;BME280;3778;42.572;23.426;2023-03-26T06:22:43;94774.44;;;-146.70;60.63
7474;BME280;3778;42.572;23.426;2023-03-26T06:25:10;94755.69;;;-146.70;60.88
7474;BME280;3778;42.572;23.426;2023-03-26T06:27:36;94716.09;;;-146.70;61.35
7474;BME280;3778;42.572;23.426;2023-03-26T06:30:04;94776.53;;;-146.70;60.76
7474;BME280;3778;42.572;23.426;2023-03-26T06:32:31;94720.25;;;-146.70;59.82
7474;BME280;3778;42.572;23.426;2023-03-26T06:34:58;94757.78;;;-146.70;59.74
7474;BME280;3778;42.572;23.426;2023-03-26T06:37:24;94726.50;;;-146.70;59.41
7474;BME280;3778;42.572;23.426;2023-03-26T06:39:52;94753.59;;;-146.70;58.47
7474;BME280;3778;42.572;23.426;2023-03-26T06:42:19;94711.91;;;-146.70;58.44
7474;BME280;3778;42.572;23.426;2023-03-26T06:44:46;94728.59;;;-146.70;58.30
7474;BME280;3778;42.572;23.426;2023-03-26T06:47:12;94749.44;;;-146.70;58.32
7474;BME280;3778;42.572;23.426;2023-03-26T06:49:39;94722.34;;;-146.70;58.17
7474;BME280;3778;42.572;23.426;2023-03-26T06:52:06;94728.59;;;-146.70;57.88
7474;BME280;3778;42.572;23.426;2023-03-26T06:54:32;94766.09;;;-146.70;57.75
7474;BME280;3778;42.572;23.426;2023-03-26T06:57:01;94724.44;;;-146.70;57.76
7474;BME280;3778;42.572;23.426;2023-03-26T06:59:27;94686.91;;;-146.70;57.64
7474;BME280;3778;42.572;23.426;2023-03-26T07:01:54;94674.41;;;-146.70;56.94
7474;BME280;3778;42.572;23.426;2023-03-26T07:04:21;94718.16;;;-146.70;56.07
7474;BME280;3778;42.572;23.426;2023-03-26T07:06:47;94722.34;;;-146.70;57.02
7474;BME280;3778;42.572;23.426;2023-03-26T07:09:14;94720.25;;;-146.70;56.47
7474;BME280;3778;42.572;23.426;2023-03-26T07:11:41;94691.09;;;-146.70;56.13
7474;BME280;3778;42.572;23.426;2023-03-26T07:14:09;94676.50;;;-146.70;55.98
7474;BME280;3778;42.572;23.426;2023-03-26T07:16:35;94645.22;;;-146.70;56.66
7474;BME280;3778;42.572;23.426;2023-03-26T07:19:02;94607.72;;;-146.70;56.08
7474;BME280;3778;42.572;23.426;2023-03-26T07:21:29;94680.66;;;-146.70;56.11
7474;BME280;3778;42.572;23.426;2023-03-26T07:23:57;94674.41;;;-146.70;53.52
7474;BME280;3778;42.572;23.426;2023-03-26T07:26:27;94695.25;;;-146.70;53.32
7474;BME280;3778;42.572;23.426;2023-03-26T07:28:59;94691.09;;;-146.70;52.54
7474;BME280;3778;42.572;23.426;2023-03-26T07:31:36;94707.75;;;-146.70;52.80
7474;BME280;3778;42.572;23.426;2023-03-26T07:34:15;94674.41;;;-146.70;53.61
7474;BME280;3778;42.572;23.426;2023-03-26T07:36:50;94661.91;;;-146.70;54.00
7474;BME280;3778;42.572;23.426;2023-03-26T07:39:33;94580.63;;;-146.70;55.46
7474;BME280;3778;42.572;23.426;2023-03-26T07:42:05;94622.31;;;-146.70;53.76
7474;BME280;3778;42.572;23.426;2023-03-26T07:44:46;94628.56;;;-146.70;54.07
7474;BME280;3778;42.572;23.426;2023-03-26T07:47:22;94628.56;;;-146.70;53.12
7474;BME280;3778;42.572;23.426;2023-03-26T07:49:52;94586.88;;;-146.70;52.93
7474;BME280;3778;42.572;23.426;2023-03-26T07:52:19;94584.78;;;-146.70;52.61
7474;BME280;3778;42.572;23.426;2023-03-26T07:54:47;94620.22;;;-146.70;51.59
7474;BME280;3778;42.572;23.426;2023-03-26T07:57:18;94601.47;;;-146.70;50.91
7474;BME280;3778;42.572;23.426;2023-03-26T07:59:51;94557.72;;;-146.70;52.09
7474;BME280;3778;42.572;23.426;2023-03-26T08:02:37;94555.63;;;-146.70;52.61
7474;BME280;3778;42.572;23.426;2023-03-26T08:05:13;94549.38;;;-146.70;49.66
7474;BME280;3778;42.572;23.426;2023-03-26T08:07:55;94545.19;;;-146.70;49.36
7474;BME280;3778;42.572;23.426;2023-03-26T08:10:27;94566.03;;;-146.70;49.63
7474;BME280;3778;42.572;23.426;2023-03-26T08:13:00;94599.38;;;-146.70;48.93
7474;BME280;3778;42.572;23.426;2023-03-26T08:15:34;94584.78;;;-146.70;47.81
7474;BME280;3778;42.572;23.426;2023-03-26T08:18:19;94568.13;;;-146.70;47.79
7474;BME280;3778;42.572;23.426;2023-03-26T08:20:55;94543.13;;;-146.70;47.58
7474;BME280;3778;42.572;23.426;2023-03-26T08:23:28;94528.53;;;-146.70;47.38
7474;BME280;3778;42.572;23.426;2023-03-26T08:26:00;94495.19;;;-146.70;46.40
7474;BME280;3778;42.572;23.426;2023-03-26T08:28:39;94495.19;;;-146.70;47.32
7474;BME280;3778;42.572;23.426;2023-03-26T08:31:14;94503.53;;;-146.70;46.57
7474;BME280;3778;42.572;23.426;2023-03-26T08:33:43;94472.28;;;-146.70;45.57
7474;BME280;3778;42.572;23.426;2023-03-26T08:36:10;94461.84;;;-146.70;46.31
7474;BME280;3778;42.572;23.426;2023-03-26T08:38:37;94449.34;;;-146.70;47.90
7474;BME280;3778;42.572;23.426;2023-03-26T08:44:47;94445.19;;;-146.70;45.72
7474;BME280;3778;42.572;23.426;2023-03-26T08:47:56;94430.59;;;-146.70;46.46
7474;BME280;3778;42.572;23.426;2023-03-26T08:50:56;94399.34;;;-146.70;44.57
7474;BME280;3778;42.572;23.426;2023-03-26T08:54:19;94386.81;;;-146.70;42.20
7474;BME280;3778;42.572;23.426;2023-03-26T08:56:52;94393.09;;;-146.70;41.03
7474;BME280;3778;42.572;23.426;2023-03-26T09:00:01;94361.81;;;-146.70;40.71
7474;BME280;3778;42.572;23.426;2023-03-26T09:03:14;94340.97;;;-146.70;40.77
7474;BME280;3778;42.572;23.426;2023-03-26T09:06:13;94370.16;;;-146.70;39.06
7474;BME280;3778;42.572;23.426;2023-03-26T09:09:12;94366.00;;;-146.70;40.44
7474;BME280;3778;42.572;23.426;2023-03-26T09:21:11;94345.16;;;-146.70;39.74
7474;BME280;3778;42.572;23.426;2023-03-26T09:24:16;94309.72;;;-146.70;37.50
7474;BME280;3778;42.572;23.426;2023-03-26T09:26:59;94299.31;;;-146.70;37.32
7474;BME280;3778;42.572;23.426;2023-03-26T09:33:02;94228.47;;;-146.70;37.12
7474;BME280;3778;42.572;23.426;2023-03-26T09:35:49;94286.81;;;-146.70;35.64
7474;BME280;3778;42.572;23.426;2023-03-26T09:38:32;94278.47;;;-146.70;37.23
7474;BME280;3778;42.572;23.426;2023-03-26T09:41:08;94311.81;;;-146.70;36.75
7474;BME280;3778;42.572;23.426;2023-03-26T09:44:06;94240.97;;;-146.70;36.71
7474;BME280;3778;42.572;23.426;2023-03-26T09:46:45;94278.47;;;-146.70;37.52
7474;BME280;3778;42.572;23.426;2023-03-26T09:49:25;94255.56;;;-146.70;36.47
7474;BME280;3778;42.572;23.426;2023-03-26T09:52:16;94228.47;;;-146.70;36.73
7474;BME280;3778;42.572;23.426;2023-03-26T09:55:14;94228.47;;;-146.70;37.12
7474;BME280;3778;42.572;23.426;2023-03-26T10:01:04;94288.88;;;-146.70;38.93
7474;BME280;3778;42.572;23.426;2023-03-26T10:03:41;94255.56;;;-146.70;38.47
7474;BME280;3778;42.572;23.426;2023-03-26T10:06:24;94240.97;;;-146.70;37.57
7474;BME280;3778;42.572;23.426;2023-03-26T10:09:31;94253.47;;;-146.70;37.54
7474;BME280;3778;42.572;23.426;2023-03-26T10:12:23;94238.88;;;-146.70;37.80
7474;BME280;3778;42.572;23.426;2023-03-26T10:15:03;94268.06;;;-146.70;38.04
7474;BME280;3778;42.572;23.426;2023-03-26T10:17:48;94228.47;;;-146.70;37.66
7474;BME280;3778;42.572;23.426;2023-03-26T10:20:32;94207.63;;;-146.70;37.02
7474;BME280;3778;42.572;23.426;2023-03-26T10:23:30;94211.78;;;-146.70;37.21
7474;BME280;3778;42.572;23.426;2023-03-26T10:26:13;94238.88;;;-146.70;37.29
7474;BME280;3778;42.572;23.426;2023-03-26T10:28:56;94355.56;;;-146.70;37.21
7474;BME280;3778;42.572;23.426;2023-03-26T10:31:41;94147.19;;;-146.70;36.78
7474;BME280;3778;42.572;23.426;2023-03-26T10:34:17;94197.19;;;-146.70;34.65
7474;BME280;3778;42.572;23.426;2023-03-26T10:36:56;94220.13;;;-146.70;34.79
7474;BME280;3778;42.572;23.426;2023-03-26T10:39:46;94170.13;;;-146.70;36.28
7474;BME280;3778;42.572;23.426;2023-03-26T10:42:36;94174.28;;;-146.70;35.09
7474;BME280;3778;42.572;23.426;2023-03-26T10:45:13;94126.34;;;-146.70;35.52
7474;BME280;3778;42.572;23.426;2023-03-26T10:48:10;94140.94;;;-146.70;35.56
7474;BME280;3778;42.572;23.426;2023-03-26T10:51:07;94136.78;;;-146.70;35.38
7474;BME280;3778;42.572;23.426;2023-03-26T10:53:46;94084.69;;;-146.70;34.46
7474;BME280;3778;42.572;23.426;2023-03-26T10:56:21;94109.69;;;-146.70;35.19
7474;BME280;3778;42.572;23.426;2023-03-26T10:58:48;94086.75;;;-146.70;36.43
7474;BME280;3778;42.572;23.426;2023-03-26T11:01:22;94074.25;;;-146.70;33.37
7474;BME280;3778;42.572;23.426;2023-03-26T11:03:52;94072.19;;;-146.70;33.93
7474;BME280;3778;42.572;23.426;2023-03-26T11:06:29;94036.75;;;-146.70;33.57
7474;BME280;3778;42.572;23.426;2023-03-26T11:09:04;94088.84;;;-146.70;32.91
7474;BME280;3778;42.572;23.426;2023-03-26T11:11:39;94065.94;;;-146.70;32.84
7474;BME280;3778;42.572;23.426;2023-03-26T11:14:15;94045.09;;;-146.70;33.52
7474;BME280;3778;42.572;23.426;2023-03-26T11:16:54;94032.59;;;-146.70;32.85
7474;BME280;3778;42.572;23.426;2023-03-26T11:19:30;94024.25;;;-146.70;33.16
7474;BME280;3778;42.572;23.426;2023-03-26T11:22:13;94070.09;;;-146.70;32.63
7474;BME280;3778;42.572;23.426;2023-03-26T11:25:08;94034.69;;;-146.70;33.21
7474;BME280;3778;42.572;23.426;2023-03-26T11:27:51;94028.41;;;-146.70;33.40
7474;BME280;3778;42.572;23.426;2023-03-26T11:30:28;94024.25;;;-146.70;32.43
7474;BME280;3778;42.572;23.426;2023-03-26T11:33:02;94036.75;;;-146.70;31.65
7474;BME280;3778;42.572;23.426;2023-03-26T11:35:30;94055.50;;;-146.70;30.98
7474;BME280;3778;42.572;23.426;2023-03-26T11:38:02;94009.66;;;-146.70;31.43
7474;BME280;3778;42.572;23.426;2023-03-26T11:40:32;93978.41;;;-146.70;30.43
7474;BME280;3778;42.572;23.426;2023-03-26T11:43:02;94024.25;;;-146.70;31.80
7474;BME280;3778;42.572;23.426;2023-03-26T11:45:32;93995.09;;;-146.70;31.70
7474;BME280;3778;42.572;23.426;2023-03-26T11:48:05;93972.16;;;-146.70;30.15
7474;BME280;3778;42.572;23.426;2023-03-26T11:50:36;93980.50;;;-146.70;29.22
7474;BME280;3778;42.572;23.426;2023-03-26T11:53:11;93978.41;;;-146.70;29.04
7474;BME280;3778;42.572;23.426;2023-03-26T11:55:40;93928.41;;;-146.70;29.57
7474;BME280;3778;42.572;23.426;2023-03-26T11:58:21;93834.66;;;-146.70;29.57
7474;BME280;3778;42.572;23.426;2023-03-26T12:00:51;93893.00;;;-146.70;29.87
7474;BME280;3778;42.572;23.426;2023-03-26T12:03:19;93878.41;;;-146.70;29.28
7474;BME280;3778;42.572;23.426;2023-03-26T12:05:48;93903.41;;;-146.70;29.69
7474;BME280;3778;42.572;23.426;2023-03-26T12:08:22;93784.66;;;-146.70;29.37
7474;BME280;3778;42.572;23.426;2023-03-26T12:10:59;93811.72;;;-146.70;28.94
7474;BME280;3778;42.572;23.426;2023-03-26T12:13:33;93828.41;;;-146.70;28.75
7474;BME280;3778;42.572;23.426;2023-03-26T12:16:09;93840.91;;;-146.70;29.29
7474;BME280;3778;42.572;23.426;2023-03-26T12:18:36;93865.91;;;-146.70;29.72
7474;BME280;3778;42.572;23.426;2023-03-26T12:21:06;93778.41;;;-146.70;29.49
7474;BME280;3778;42.572;23.426;2023-03-26T12:23:42;93803.41;;;-146.70;29.29
7474;BME280;3778;42.572;23.426;2023-03-26T12:26:14;93830.47;;;-146.70;29.37
7474;BME280;3778;42.572;23.426;2023-03-26T12:28:46;93811.72;;;-146.70;29.45
7474;BME280;3778;42.572;23.426;2023-03-26T12:31:14;93730.47;;;-146.70;29.33
7474;BME280;3778;42.572;23.426;2023-03-26T12:33:43;93742.97;;;-146.70;29.27
7474;BME280;3778;42.572;23.426;2023-03-26T12:36:19;93774.22;;;-146.70;29.17
7474;BME280;3778;42.572;23.426;2023-03-26T12:38:48;93728.38;;;-146.70;29.27
7474;BME280;3778;42.572;23.426;2023-03-26T12:41:17;93699.22;;;-146.70;29.15
7474;BME280;3778;42.572;23.426;2023-03-26T12:43:45;93653.38;;;-146.70;28.72
7474;BME280;3778;42.572;23.426;2023-03-26T12:46:22;93672.13;;;-146.70;28.83
7474;BME280;3778;42.572;23.426;2023-03-26T12:48:50;93722.13;;;-146.70;28.86
7474;BME280;3778;42.572;23.426;2023-03-26T12:51:24;93728.38;;;-146.70;28.74
7474;BME280;3778;42.572;23.426;2023-03-26T12:54:13;93642.97;;;-146.70;29.39
7474;BME280;3778;42.572;23.426;2023-03-26T12:56:46;93661.72;;;-146.70;27.96
7474;BME280;3778;42.572;23.426;2023-03-26T12:59:28;93507.53;;;-146.70;27.28
7474;BME280;3778;42.572;23.426;2023-03-26T13:02:05;93482.53;;;-146.70;27.45
7474;BME280;3778;42.572;23.426;2023-03-26T13:04:51;93509.63;;;-146.70;27.12
7474;BME280;3778;42.572;23.426;2023-03-26T13:07:26;93467.97;;;-146.70;27.45
7474;BME280;3778;42.572;23.426;2023-03-26T13:10:29;93378.38;;;-146.70;25.88
7474;BME280;3778;42.572;23.426;2023-03-26T13:13:13;93224.22;;;-146.70;26.25
7474;BME280;3778;42.572;23.426;2023-03-26T13:15:46;93245.03;;;-146.70;25.63
7474;BME280;3778;42.572;23.426;2023-03-26T13:18:25;93382.53;;;-146.70;24.64
7474;BME280;3778;42.572;23.426;2023-03-26T13:20:57;93372.13;;;-146.70;25.98
7474;BME280;3778;42.572;23.426;2023-03-26T13:23:34;93488.78;;;-146.70;25.58
7474;BME280;3778;42.572;23.426;2023-03-26T13:26:16;93586.72;;;-146.70;25.55
7474;BME280;3778;42.572;23.426;2023-03-26T13:28:53;93524.22;;;-146.70;26.06
7474;BME280;3778;42.572;23.426;2023-03-26T13:31:28;93495.03;;;-146.70;25.77
7474;BME280;3778;42.572;23.426;2023-03-26T13:34:06;93615.88;;;-146.70;26.53
7474;BME280;3778;42.572;23.426;2023-03-26T13:36:42;93584.63;;;-146.70;27.00
7474;BME280;3778;42.572;23.426;2023-03-26T13:39:18;93599.22;;;-146.70;27.41
7474;BME280;3778;42.572;23.426;2023-03-26T13:42:12;93595.03;;;-146.70;25.53
7474;BME280;3778;42.572;23.426;2023-03-26T13:44:52;93665.88;;;-146.70;25.28